sensor_id;sensor_type;location;lat;lon;timestamp;pressure;altitude;pressure_sealevel;temperature
65272;BMP280;51868;48.812;8.198;2022-12-07T00:01:46;100564.34;;;4.74
65272;BMP280;51868;48.812;8.198;2022-12-07T00:04:15;100571.72;;;4.72
65272;BMP280;51868;48.812;8.198;2022-12-07T00:06:46;100566.78;;;4.70
65272;BMP280;51868;48.812;8.198;2022-12-07T00:09:20;100571.56;;;4.70
65272;BMP280;51868;48.812;8.198;2022-12-07T00:11:51;100565.50;;;4.71
65272;BMP280;51868;48.812;8.198;2022-12-07T00:14:20;100557.81;;;4.70
65272;BMP280;51868;48.812;8.198;2022-12-07T00:16:50;100561.28;;;4.70
65272;BMP280;51868;48.812;8.198;2022-12-07T00:19:18;100558.69;;;4.72
65272;BMP280;51868;48.812;8.198;2022-12-07T00:21:47;100556.28;;;4.77
65272;BMP280;51868;48.812;8.198;2022-12-07T00:24:15;100561.22;;;4.78
65272;BMP280;51868;48.812;8.198;2022-12-07T00:26:45;100554.25;;;4.77
65272;BMP280;51868;48.812;8.198;2022-12-07T00:29:15;100557.72;;;4.78
65272;BMP280;51868;48.812;8.198;2022-12-07T00:31:44;100558.47;;;4.78
65272;BMP280;51868;48.812;8.198;2022-12-07T00:34:16;100560.47;;;4.78
65272;BMP280;51868;48.812;8.198;2022-12-07T00:36:44;100551.91;;;4.73
65272;BMP280;51868;48.812;8.198;2022-12-07T00:39:12;100551.00;;;4.71
65272;BMP280;51868;48.812;8.198;2022-12-07T00:41:40;100554.34;;;4.69
65272;BMP280;51868;48.812;8.198;2022-12-07T00:44:08;100552.88;;;4.68
65272;BMP280;51868;48.812;8.198;2022-12-07T00:46:38;100553.44;;;4.67
65272;BMP280;51868;48.812;8.198;2022-12-07T00:49:06;100559.84;;;4.69
65272;BMP280;51868;48.812;8.198;2022-12-07T00:51:34;100551.44;;;4.67
65272;BMP280;51868;48.812;8.198;2022-12-07T00:54:02;100551.97;;;4.66
65272;BMP280;51868;48.812;8.198;2022-12-07T00:56:30;100545.75;;;4.65
65272;BMP280;51868;48.812;8.198;2022-12-07T00:59:00;100547.78;;;4.65
65272;BMP280;51868;48.812;8.198;2022-12-07T01:01:29;100551.25;;;4.65
65272;BMP280;51868;48.812;8.198;2022-12-07T01:04:00;100549.66;;;4.62
65272;BMP280;51868;48.812;8.198;2022-12-07T01:06:29;100555.16;;;4.62
65272;BMP280;51868;48.812;8.198;2022-12-07T01:08:58;100547.63;;;4.63
65272;BMP280;51868;48.812;8.198;2022-12-07T01:11:28;100548.34;;;4.63
65272;BMP280;51868;48.812;8.198;2022-12-07T01:13:58;100561.94;;;4.61
65272;BMP280;51868;48.812;8.198;2022-12-07T01:16:29;100548.91;;;4.62
65272;BMP280;51868;48.812;8.198;2022-12-07T01:18:58;100551.97;;;4.66
65272;BMP280;51868;48.812;8.198;2022-12-07T01:21:29;100543.72;;;4.66
65272;BMP280;51868;48.812;8.198;2022-12-07T01:24:04;100551.59;;;4.69
65272;BMP280;51868;48.812;8.198;2022-12-07T01:26:33;100550.88;;;4.69
65272;BMP280;51868;48.812;8.198;2022-12-07T01:29:01;100549.41;;;4.68
65272;BMP280;51868;48.812;8.198;2022-12-07T01:31:29;100553.63;;;4.69
65272;BMP280;51868;48.812;8.198;2022-12-07T01:33:58;100562.59;;;4.69
65272;BMP280;51868;48.812;8.198;2022-12-07T01:36:29;100569.38;;;4.68
65272;BMP280;51868;48.812;8.198;2022-12-07T01:38:59;100569.19;;;4.66
65272;BMP280;51868;48.812;8.198;2022-12-07T01:41:31;100576.00;;;4.65
65272;BMP280;51868;48.812;8.198;2022-12-07T01:44:15;100578.03;;;4.65
65272;BMP280;51868;48.812;8.198;2022-12-07T01:46:46;100576.56;;;4.64
65272;BMP280;51868;48.812;8.198;2022-12-07T01:49:28;100571.63;;;4.62
65272;BMP280;51868;48.812;8.198;2022-12-07T01:52:04;100569.06;;;4.64
65272;BMP280;51868;48.812;8.198;2022-12-07T01:54:36;100570.50;;;4.65
65272;BMP280;51868;48.812;8.198;2022-12-07T01:57:04;100569.38;;;4.68
65272;BMP280;51868;48.812;8.198;2022-12-07T01:59:34;100553.75;;;4.71
65272;BMP280;51868;48.812;8.198;2022-12-07T02:02:07;100558.69;;;4.72
65272;BMP280;51868;48.812;8.198;2022-12-07T02:04:36;100551.16;;;4.73
65272;BMP280;51868;48.812;8.198;2022-12-07T02:07:06;100557.56;;;4.76
65272;BMP280;51868;48.812;8.198;2022-12-07T02:09:34;100556.81;;;4.75
65272;BMP280;51868;48.812;8.198;2022-12-07T02:12:02;100554.50;;;4.71
65272;BMP280;51868;48.812;8.198;2022-12-07T02:14:30;100557.81;;;4.70
65272;BMP280;51868;48.812;8.198;2022-12-07T02:17:06;100568.63;;;4.68
65272;BMP280;51868;48.812;8.198;2022-12-07T02:20:08;100554.72;;;4.66
65272;BMP280;51868;48.812;8.198;2022-12-07T02:25:38;100546.91;;;4.62
65272;BMP280;51868;48.812;8.198;2022-12-07T02:28:14;100551.25;;;4.65
65272;BMP280;51868;48.812;8.198;2022-12-07T02:30:48;100554.91;;;4.68
65272;BMP280;51868;48.812;8.198;2022-12-07T02:33:24;100547.19;;;4.66
65272;BMP280;51868;48.812;8.198;2022-12-07T02:36:00;100550.13;;;4.68
65272;BMP280;51868;48.812;8.198;2022-12-07T02:38:35;100548.84;;;4.69
65272;BMP280;51868;48.812;8.198;2022-12-07T02:41:09;100551.44;;;4.67
65272;BMP280;51868;48.812;8.198;2022-12-07T02:43:40;100548.34;;;4.63
65272;BMP280;51868;48.812;8.198;2022-12-07T02:46:14;100557.91;;;4.62
65272;BMP280;51868;48.812;8.198;2022-12-07T02:48:43;100564.13;;;4.63
65272;BMP280;51868;48.812;8.198;2022-12-07T02:51:12;100557.03;;;4.60
65272;BMP280;51868;48.812;8.198;2022-12-07T02:53:42;100550.31;;;4.53
65272;BMP280;51868;48.812;8.198;2022-12-07T02:56:14;100547.56;;;4.53
65272;BMP280;51868;48.812;8.198;2022-12-07T02:58:56;100539.16;;;4.51
65272;BMP280;51868;48.812;8.198;2022-12-07T03:01:35;100522.91;;;4.45
65272;BMP280;51868;48.812;8.198;2022-12-07T03:04:18;100532.44;;;4.44
65272;BMP280;51868;48.812;8.198;2022-12-07T03:06:54;100529.16;;;4.46
65272;BMP280;51868;48.812;8.198;2022-12-07T03:09:28;100529.16;;;4.46
65272;BMP280;51868;48.812;8.198;2022-12-07T03:12:07;100528.00;;;4.49
65272;BMP280;51868;48.812;8.198;2022-12-07T03:14:44;100523.94;;;4.50
65272;BMP280;51868;48.812;8.198;2022-12-07T03:17:18;100532.03;;;4.48
65272;BMP280;51868;48.812;8.198;2022-12-07T03:19:50;100538.66;;;4.45
65272;BMP280;51868;48.812;8.198;2022-12-07T03:22:21;100530.25;;;4.43
65272;BMP280;51868;48.812;8.198;2022-12-07T03:24:55;100536.34;;;4.41
65272;BMP280;51868;48.812;8.198;2022-12-07T03:27:26;100533.00;;;4.43
65272;BMP280;51868;48.812;8.198;2022-12-07T03:29:58;100533.59;;;4.41
65272;BMP280;51868;48.812;8.198;2022-12-07T03:32:32;100536.34;;;4.41
65272;BMP280;51868;48.812;8.198;2022-12-07T03:35:06;100529.53;;;4.42
65272;BMP280;51868;48.812;8.198;2022-12-07T03:37:40;100522.75;;;4.43
65272;BMP280;51868;48.812;8.198;2022-12-07T03:40:16;100519.59;;;4.47
65272;BMP280;51868;48.812;8.198;2022-12-07T03:42:45;100517.00;;;4.49
65272;BMP280;51868;48.812;8.198;2022-12-07T03:45:15;100524.84;;;4.52
65272;BMP280;51868;48.812;8.198;2022-12-07T03:47:48;100529.63;;;4.52
65272;BMP280;51868;48.812;8.198;2022-12-07T03:50:26;100521.97;;;4.50
65272;BMP280;51868;48.812;8.198;2022-12-07T03:52:58;100521.78;;;4.48
65272;BMP280;51868;48.812;8.198;2022-12-07T03:55:29;100516.69;;;4.45
65272;BMP280;51868;48.812;8.198;2022-12-07T03:58:02;100506.25;;;4.43
65272;BMP280;51868;48.812;8.198;2022-12-07T04:00:31;100507.56;;;4.42
65272;BMP280;51868;48.812;8.198;2022-12-07T04:03:00;100512.31;;;4.42
65272;BMP280;51868;48.812;8.198;2022-12-07T04:05:28;100509.75;;;4.44
65272;BMP280;51868;48.812;8.198;2022-12-07T04:07:56;100506.13;;;4.41
65272;BMP280;51868;48.812;8.198;2022-12-07T04:10:24;100513.63;;;4.41
65272;BMP280;51868;48.812;8.198;2022-12-07T04:12:52;100514.34;;;4.41
65272;BMP280;51868;48.812;8.198;2022-12-07T04:15:19;100525.34;;;4.41
65272;BMP280;51868;48.812;8.198;2022-12-07T04:17:47;100519.72;;;4.39
65272;BMP280;51868;48.812;8.198;2022-12-07T04:20:17;100529.22;;;4.38
65272;BMP280;51868;48.812;8.198;2022-12-07T04:22:45;100517.53;;;4.38
65272;BMP280;51868;48.812;8.198;2022-12-07T04:25:12;100509.13;;;4.36
65272;BMP280;51868;48.812;8.198;2022-12-07T04:27:40;100511.84;;;4.36
65272;BMP280;51868;48.812;8.198;2022-12-07T04:30:08;100513.00;;;4.33
65272;BMP280;51868;48.812;8.198;2022-12-07T04:32:36;100510.81;;;4.31
65272;BMP280;51868;48.812;8.198;2022-12-07T04:35:05;100515.59;;;4.30
65272;BMP280;51868;48.812;8.198;2022-12-07T04:37:34;100519.03;;;4.31
65272;BMP280;51868;48.812;8.198;2022-12-07T04:40:03;100511.94;;;4.28
65272;BMP280;51868;48.812;8.198;2022-12-07T04:42:31;100508.16;;;4.23
65272;BMP280;51868;48.812;8.198;2022-12-07T04:44:59;100516.22;;;4.21
65272;BMP280;51868;48.812;8.198;2022-12-07T04:47:26;100514.75;;;4.20
65272;BMP280;51868;48.812;8.198;2022-12-07T04:49:55;100520.13;;;4.18
65272;BMP280;51868;48.812;8.198;2022-12-07T04:52:23;100510.25;;;4.15
65272;BMP280;51868;48.812;8.198;2022-12-07T04:54:52;100524.56;;;4.14
65272;BMP280;51868;48.812;8.198;2022-12-07T04:57:20;100524.00;;;4.15
65272;BMP280;51868;48.812;8.198;2022-12-07T04:59:48;100517.06;;;4.14
65272;BMP280;51868;48.812;8.198;2022-12-07T05:02:19;100508.09;;;4.14
65272;BMP280;51868;48.812;8.198;2022-12-07T05:04:47;100516.31;;;4.14
65272;BMP280;51868;48.812;8.198;2022-12-07T05:07:15;100523.69;;;4.11
65272;BMP280;51868;48.812;8.198;2022-12-07T05:09:43;100528.41;;;4.11
65272;BMP280;51868;48.812;8.198;2022-12-07T05:12:12;100520.19;;;4.11
65272;BMP280;51868;48.812;8.198;2022-12-07T05:14:40;100519.47;;;4.10
65272;BMP280;51868;48.812;8.198;2022-12-07T05:17:08;100514.13;;;4.12
65272;BMP280;51868;48.812;8.198;2022-12-07T05:19:37;100516.16;;;4.12
65272;BMP280;51868;48.812;8.198;2022-12-07T05:22:05;100508.25;;;4.16
65272;BMP280;51868;48.812;8.198;2022-12-07T05:24:33;100512.44;;;4.17
65272;BMP280;51868;48.812;8.198;2022-12-07T05:27:01;100511.00;;;4.16
65272;BMP280;51868;48.812;8.198;2022-12-07T05:29:31;100515.56;;;4.13
65272;BMP280;51868;48.812;8.198;2022-12-07T05:31:58;100520.34;;;4.13
65272;BMP280;51868;48.812;8.198;2022-12-07T05:34:26;100519.63;;;4.12
65272;BMP280;51868;48.812;8.198;2022-12-07T05:36:54;100518.91;;;4.12
65272;BMP280;51868;48.812;8.198;2022-12-07T05:39:22;100521.47;;;4.10
65272;BMP280;51868;48.812;8.198;2022-12-07T05:44:38;100521.69;;;4.04
65272;BMP280;51868;48.812;8.198;2022-12-07T05:47:07;100523.16;;;4.05
65272;BMP280;51868;48.812;8.198;2022-12-07T05:49:35;100513.63;;;4.06
65272;BMP280;51868;48.812;8.198;2022-12-07T05:52:05;100524.44;;;4.04
65272;BMP280;51868;48.812;8.198;2022-12-07T05:54:33;100525.59;;;4.01
65272;BMP280;51868;48.812;8.198;2022-12-07T05:57:01;100529.63;;;4.00
65272;BMP280;51868;48.812;8.198;2022-12-07T05:59:29;100520.66;;;3.99
65272;BMP280;51868;48.812;8.198;2022-12-07T06:01:59;100524.13;;;4.00
65272;BMP280;51868;48.812;8.198;2022-12-07T06:04:29;100521.97;;;3.98
65272;BMP280;51868;48.812;8.198;2022-12-07T06:06:57;100514.28;;;3.97
65272;BMP280;51868;48.812;8.198;2022-12-07T06:09:27;100522.66;;;3.99
65272;BMP280;51868;48.812;8.198;2022-12-07T06:11:55;100526.31;;;4.01
65272;BMP280;51868;48.812;8.198;2022-12-07T06:14:41;100523.56;;;4.01
65272;BMP280;51868;48.812;8.198;2022-12-07T06:17:16;100521.97;;;3.98
65272;BMP280;51868;48.812;8.198;2022-12-07T06:19:56;100524.56;;;3.96
65272;BMP280;51868;48.812;8.198;2022-12-07T06:22:24;100532.06;;;3.96
65272;BMP280;51868;48.812;8.198;2022-12-07T06:24:52;100536.09;;;3.95
65272;BMP280;51868;48.812;8.198;2022-12-07T06:27:19;100533.19;;;3.93
65272;BMP280;51868;48.812;8.198;2022-12-07T06:29:47;100528.81;;;3.90
65272;BMP280;51868;48.812;8.198;2022-12-07T06:32:17;100528.97;;;3.92
65272;BMP280;51868;48.812;8.198;2022-12-07T06:34:45;100532.63;;;3.94
65272;BMP280;51868;48.812;8.198;2022-12-07T06:37:14;100536.84;;;3.95
65272;BMP280;51868;48.812;8.198;2022-12-07T06:39:41;100529.16;;;3.94
65272;BMP280;51868;48.812;8.198;2022-12-07T06:42:13;100538.69;;;3.93
65272;BMP280;51868;48.812;8.198;2022-12-07T06:44:41;100533.03;;;3.91
65272;BMP280;51868;48.812;8.198;2022-12-07T06:47:09;100539.97;;;3.92
65272;BMP280;51868;48.812;8.198;2022-12-07T06:49:59;100537.94;;;3.92
65272;BMP280;51868;48.812;8.198;2022-12-07T06:52:27;100530.44;;;3.93
65272;BMP280;51868;48.812;8.198;2022-12-07T06:54:55;100535.38;;;3.94
65272;BMP280;51868;48.812;8.198;2022-12-07T06:57:22;100537.72;;;3.98
65272;BMP280;51868;48.812;8.198;2022-12-07T06:59:50;100535.69;;;3.98
65272;BMP280;51868;48.812;8.198;2022-12-07T07:02:18;100530.75;;;3.97
65272;BMP280;51868;48.812;8.198;2022-12-07T07:04:46;100534.38;;;3.99
65272;BMP280;51868;48.812;8.198;2022-12-07T07:07:15;100532.97;;;3.98
65272;BMP280;51868;48.812;8.198;2022-12-07T07:09:43;100539.88;;;3.99
65272;BMP280;51868;48.812;8.198;2022-12-07T07:12:11;100537.28;;;4.01
65272;BMP280;51868;48.812;8.198;2022-12-07T07:14:39;100535.44;;;4.04
65272;BMP280;51868;48.812;8.198;2022-12-07T07:17:07;100536.91;;;4.05
65272;BMP280;51868;48.812;8.198;2022-12-07T07:19:35;100549.03;;;4.02
65272;BMP280;51868;48.812;8.198;2022-12-07T07:22:03;100549.75;;;4.02
65272;BMP280;51868;48.812;8.198;2022-12-07T07:24:33;100550.84;;;3.99
65272;BMP280;51868;48.812;8.198;2022-12-07T07:27:00;100552.31;;;4.00
65272;BMP280;51868;48.812;8.198;2022-12-07T07:29:28;100541.34;;;4.00
65272;BMP280;51868;48.812;8.198;2022-12-07T07:31:56;100549.03;;;4.02
65272;BMP280;51868;48.812;8.198;2022-12-07T07:34:31;100544.25;;;4.02
65272;BMP280;51868;48.812;8.198;2022-12-07T07:36:59;100549.16;;;4.04
65272;BMP280;51868;48.812;8.198;2022-12-07T07:39:27;100560.91;;;4.04
65272;BMP280;51868;48.812;8.198;2022-12-07T07:41:56;100561.63;;;4.05
65272;BMP280;51868;48.812;8.198;2022-12-07T07:44:24;100552.97;;;4.08
65272;BMP280;51868;48.812;8.198;2022-12-07T07:47:00;100556.28;;;4.07
65272;BMP280;51868;48.812;8.198;2022-12-07T07:49:27;100557.03;;;4.07
65272;BMP280;51868;48.812;8.198;2022-12-07T07:51:55;100558.63;;;4.11
65272;BMP280;51868;48.812;8.198;2022-12-07T07:54:23;100565.03;;;4.13
65272;BMP280;51868;48.812;8.198;2022-12-07T07:56:53;100563.91;;;4.16
65272;BMP280;51868;48.812;8.198;2022-12-07T07:59:22;100566.06;;;4.18
65272;BMP280;51868;48.812;8.198;2022-12-07T08:01:51;100571.56;;;4.18
65272;BMP280;51868;48.812;8.198;2022-12-07T08:04:19;100566.66;;;4.16
65272;BMP280;51868;48.812;8.198;2022-12-07T08:06:47;100569.56;;;4.18
65272;BMP280;51868;48.812;8.198;2022-12-07T08:09:14;100569.31;;;4.24
65272;BMP280;51868;48.812;8.198;2022-12-07T08:11:42;100574.41;;;4.27
65272;BMP280;51868;48.812;8.198;2022-12-07T08:14:11;100569.06;;;4.29
65272;BMP280;51868;48.812;8.198;2022-12-07T08:16:41;100569.22;;;4.32
65272;BMP280;51868;48.812;8.198;2022-12-07T08:19:11;100567.78;;;4.30
65272;BMP280;51868;48.812;8.198;2022-12-07T08:21:39;100578.78;;;4.30
65272;BMP280;51868;48.812;8.198;2022-12-07T08:24:07;100575.31;;;4.30
65272;BMP280;51868;48.812;8.198;2022-12-07T08:26:35;100580.22;;;4.32
65272;BMP280;51868;48.812;8.198;2022-12-07T08:29:04;100579.66;;;4.33
65272;BMP280;51868;48.812;8.198;2022-12-07T08:31:31;100580.38;;;4.34
65272;BMP280;51868;48.812;8.198;2022-12-07T08:34:01;100585.88;;;4.34
65272;BMP280;51868;48.812;8.198;2022-12-07T08:36:29;100585.72;;;4.32
65272;BMP280;51868;48.812;8.198;2022-12-07T08:38:57;100588.28;;;4.29
65272;BMP280;51868;48.812;8.198;2022-12-07T08:41:47;100587.97;;;4.25
65272;BMP280;51868;48.812;8.198;2022-12-07T08:44:15;100588.53;;;4.24
65272;BMP280;51868;48.812;8.198;2022-12-07T08:46:47;100589.84;;;4.23
65272;BMP280;51868;48.812;8.198;2022-12-07T08:49:22;100587.22;;;4.25
65272;BMP280;51868;48.812;8.198;2022-12-07T08:51:51;100592.16;;;4.26
65272;BMP280;51868;48.812;8.198;2022-12-07T08:54:20;100588.28;;;4.29
65272;BMP280;51868;48.812;8.198;2022-12-07T08:56:52;100590.47;;;4.31
65272;BMP280;51868;48.812;8.198;2022-12-07T08:59:26;100587.56;;;4.29
65272;BMP280;51868;48.812;8.198;2022-12-07T09:01:55;100593.78;;;4.29
65272;BMP280;51868;48.812;8.198;2022-12-07T09:04:24;100589.22;;;4.32
65272;BMP280;51868;48.812;8.198;2022-12-07T09:06:53;100584.25;;;4.30
65272;BMP280;51868;48.812;8.198;2022-12-07T09:09:21;100578.78;;;4.30
65272;BMP280;51868;48.812;8.198;2022-12-07T09:11:49;100583.53;;;4.30
65272;BMP280;51868;48.812;8.198;2022-12-07T09:14:17;100583.13;;;4.34
65272;BMP280;51868;48.812;8.198;2022-12-07T09:16:45;100583.13;;;4.34
65272;BMP280;51868;48.812;8.198;2022-12-07T09:19:13;100588.06;;;4.35
65272;BMP280;51868;48.812;8.198;2022-12-07T09:21:42;100575.22;;;4.38
65272;BMP280;51868;48.812;8.198;2022-12-07T09:24:11;100587.09;;;4.40
65272;BMP280;51868;48.812;8.198;2022-12-07T09:26:39;100588.53;;;4.41
65272;BMP280;51868;48.812;8.198;2022-12-07T09:31:56;100589.28;;;4.42
65272;BMP280;51868;48.812;8.198;2022-12-07T09:34:30;100581.19;;;4.44
65272;BMP280;51868;48.812;8.198;2022-12-07T09:37:00;100592.91;;;4.44
65272;BMP280;51868;48.812;8.198;2022-12-07T09:39:37;100589.19;;;4.49
65272;BMP280;51868;48.812;8.198;2022-12-07T09:42:32;100586.78;;;4.54
65272;BMP280;51868;48.812;8.198;2022-12-07T09:45:06;100587.09;;;4.58
65272;BMP280;51868;48.812;8.198;2022-12-07T09:47:34;100579.72;;;4.60
65272;BMP280;51868;48.812;8.198;2022-12-07T09:50:12;100570.91;;;4.62
65272;BMP280;51868;48.812;8.198;2022-12-07T09:52:43;100583.19;;;4.61
65272;BMP280;51868;48.812;8.198;2022-12-07T09:55:13;100580.44;;;4.61
65272;BMP280;51868;48.812;8.198;2022-12-07T09:57:44;100573.63;;;4.62
65272;BMP280;51868;48.812;8.198;2022-12-07T10:00:14;100570.34;;;4.63
65272;BMP280;51868;48.812;8.198;2022-12-07T10:02:44;100574.56;;;4.64
65272;BMP280;51868;48.812;8.198;2022-12-07T10:05:20;100576.16;;;4.67
65272;BMP280;51868;48.812;8.198;2022-12-07T10:07:54;100574.69;;;4.66
65272;BMP280;51868;48.812;8.198;2022-12-07T10:10:25;100571.38;;;4.68
65272;BMP280;51868;48.812;8.198;2022-12-07T10:13:06;100559.84;;;4.69
65272;BMP280;51868;48.812;8.198;2022-12-07T10:15:46;100566.63;;;4.68
65272;BMP280;51868;48.812;8.198;2022-12-07T10:18:31;100555.06;;;4.70
65272;BMP280;51868;48.812;8.198;2022-12-07T10:21:17;100550.13;;;4.68
65272;BMP280;51868;48.812;8.198;2022-12-07T10:24:01;100565.88;;;4.68
65272;BMP280;51868;48.812;8.198;2022-12-07T10:26:32;100555.63;;;4.68
65272;BMP280;51868;48.812;8.198;2022-12-07T10:29:02;100550.13;;;4.68
65272;BMP280;51868;48.812;8.198;2022-12-07T10:31:41;100544.63;;;4.68
65272;BMP280;51868;48.812;8.198;2022-12-07T10:34:21;100545.38;;;4.69
65272;BMP280;51868;48.812;8.198;2022-12-07T10:36:51;100542.63;;;4.69
65272;BMP280;51868;48.812;8.198;2022-12-07T10:39:22;100551.00;;;4.71
65272;BMP280;51868;48.812;8.198;2022-12-07T10:41:54;100540.75;;;4.71
65272;BMP280;51868;48.812;8.198;2022-12-07T10:44:28;100543.81;;;4.76
65272;BMP280;51868;48.812;8.198;2022-12-07T10:47:32;100540.78;;;4.81
65272;BMP280;51868;48.812;8.198;2022-12-07T10:50:39;100546.03;;;4.87
65272;BMP280;51868;48.812;8.198;2022-12-07T10:53:38;100542.00;;;4.88
65272;BMP280;51868;48.812;8.198;2022-12-07T10:56:26;100536.91;;;4.84
65272;BMP280;51868;48.812;8.198;2022-12-07T10:59:59;100533.44;;;4.84
65272;BMP280;51868;48.812;8.198;2022-12-07T11:03:11;100528.50;;;4.82
65272;BMP280;51868;48.812;8.198;2022-12-07T11:05:52;100528.50;;;4.82
65272;BMP280;51868;48.812;8.198;2022-12-07T11:08:43;100525.75;;;4.82
65272;BMP280;51868;48.812;8.198;2022-12-07T11:11:33;100523.16;;;4.84
65272;BMP280;51868;48.812;8.198;2022-12-07T11:14:18;100513.03;;;4.87
65272;BMP280;51868;48.812;8.198;2022-12-07T11:16:57;100517.97;;;4.88
65272;BMP280;51868;48.812;8.198;2022-12-07T11:19:47;100519.41;;;4.89
65272;BMP280;51868;48.812;8.198;2022-12-07T11:22:39;100507.13;;;4.90
65272;BMP280;51868;48.812;8.198;2022-12-07T11:25:39;100505.09;;;4.91
65272;BMP280;51868;48.812;8.198;2022-12-07T11:28:20;100505.09;;;4.91
65272;BMP280;51868;48.812;8.198;2022-12-07T11:30:56;100499.28;;;4.87
65272;BMP280;51868;48.812;8.198;2022-12-07T11:33:29;100492.34;;;4.86
65272;BMP280;51868;48.812;8.198;2022-12-07T11:36:11;100488.72;;;4.83
65272;BMP280;51868;48.812;8.198;2022-12-07T11:38:51;100484.66;;;4.84
65272;BMP280;51868;48.812;8.198;2022-12-07T11:41:30;100489.28;;;4.82
65272;BMP280;51868;48.812;8.198;2022-12-07T11:44:06;100481.75;;;4.82
65272;BMP280;51868;48.812;8.198;2022-12-07T11:46:50;100479.88;;;4.85
65272;BMP280;51868;48.812;8.198;2022-12-07T11:49:23;100476.72;;;4.88
65272;BMP280;51868;48.812;8.198;2022-12-07T11:52:02;100471.22;;;4.88
65272;BMP280;51868;48.812;8.198;2022-12-07T11:54:34;100478.31;;;4.91
65272;BMP280;51868;48.812;8.198;2022-12-07T11:57:12;100466.75;;;4.93
65272;BMP280;51868;48.812;8.198;2022-12-07T11:59:50;100470.97;;;4.94
65272;BMP280;51868;48.812;8.198;2022-12-07T12:02:22;100470.25;;;4.93
65272;BMP280;51868;48.812;8.198;2022-12-07T12:04:56;100470.25;;;4.93
65272;BMP280;51868;48.812;8.198;2022-12-07T12:07:27;100476.63;;;4.96
65272;BMP280;51868;48.812;8.198;2022-12-07T12:10:19;100469.69;;;4.95
65272;BMP280;51868;48.812;8.198;2022-12-07T12:13:07;100472.44;;;4.95
65272;BMP280;51868;48.812;8.198;2022-12-07T12:16:10;100470.97;;;4.94
65272;BMP280;51868;48.812;8.198;2022-12-07T12:18:51;100466.22;;;4.94
65272;BMP280;51868;48.812;8.198;2022-12-07T12:21:26;100455.75;;;4.93
65272;BMP280;51868;48.812;8.198;2022-12-07T12:23:58;100459.97;;;4.94
65272;BMP280;51868;48.812;8.198;2022-12-07T12:26:29;100464.75;;;4.93
65272;BMP280;51868;48.812;8.198;2022-12-07T12:29:01;100455.59;;;4.91
65272;BMP280;51868;48.812;8.198;2022-12-07T12:31:39;100458.19;;;4.89
65272;BMP280;51868;48.812;8.198;2022-12-07T12:34:31;100454.16;;;4.90
65272;BMP280;51868;48.812;8.198;2022-12-07T12:36:59;100447.34;;;4.91
65272;BMP280;51868;48.812;8.198;2022-12-07T12:39:28;100451.41;;;4.90
65272;BMP280;51868;48.812;8.198;2022-12-07T12:42:01;100450.81;;;4.91
65272;BMP280;51868;48.812;8.198;2022-12-07T12:45:17;100444.19;;;4.94
65272;BMP280;51868;48.812;8.198;2022-12-07T12:47:56;100430.72;;;4.99
65272;BMP280;51868;48.812;8.198;2022-12-07T12:50:27;100441.16;;;5.00
65272;BMP280;51868;48.812;8.198;2022-12-07T12:52:59;100439.72;;;4.99
65272;BMP280;51868;48.812;8.198;2022-12-07T12:58:35;100432.34;;;5.02
65272;BMP280;51868;48.812;8.198;2022-12-07T13:01:33;100429.59;;;5.02
65272;BMP280;51868;48.812;8.198;2022-12-07T13:04:18;100423.22;;;4.99
65272;BMP280;51868;48.812;8.198;2022-12-07T13:06:49;100428.72;;;4.99
65272;BMP280;51868;48.812;8.198;2022-12-07T13:09:23;100425.97;;;4.99
65272;BMP280;51868;48.812;8.198;2022-12-07T13:11:58;100421.03;;;4.97
65272;BMP280;51868;48.812;8.198;2022-12-07T13:17:58;100410.19;;;5.00
65272;BMP280;51868;48.812;8.198;2022-12-07T13:20:59;100409.31;;;4.97
65272;BMP280;51868;48.812;8.198;2022-12-07T13:23:36;100405.25;;;4.98
65272;BMP280;51868;48.812;8.198;2022-12-07T13:26:12;100406.88;;;5.01
65272;BMP280;51868;48.812;8.198;2022-12-07T13:28:45;100400.63;;;5.01
65272;BMP280;51868;48.812;8.198;2022-12-07T13:31:18;100398.63;;;5.01
65272;BMP280;51868;48.812;8.198;2022-12-07T13:33:47;100401.50;;;5.03
65272;BMP280;51868;48.812;8.198;2022-12-07T13:36:21;100389.78;;;5.03
65272;BMP280;51868;48.812;8.198;2022-12-07T13:38:52;100391.97;;;5.04
65272;BMP280;51868;48.812;8.198;2022-12-07T13:41:22;100393.41;;;5.05
65272;BMP280;51868;48.812;8.198;2022-12-07T13:43:54;100385.75;;;5.04
65272;BMP280;51868;48.812;8.198;2022-12-07T13:46:32;100388.66;;;5.06
65272;BMP280;51868;48.812;8.198;2022-12-07T13:49:01;100390.81;;;5.07
65272;BMP280;51868;48.812;8.198;2022-12-07T13:51:34;100384.03;;;5.08
65272;BMP280;51868;48.812;8.198;2022-12-07T13:54:10;100391.53;;;5.08
65272;BMP280;51868;48.812;8.198;2022-12-07T13:56:39;100386.63;;;5.06
65272;BMP280;51868;48.812;8.198;2022-12-07T13:59:13;100390.66;;;5.05
65272;BMP280;51868;48.812;8.198;2022-12-07T14:01:42;100387.91;;;5.05
65272;BMP280;51868;48.812;8.198;2022-12-07T14:04:17;100381.84;;;5.07
65272;BMP280;51868;48.812;8.198;2022-12-07T14:06:50;100383.28;;;5.08
65272;BMP280;51868;48.812;8.198;2022-12-07T14:09:22;100381.69;;;5.05
65272;BMP280;51868;48.812;8.198;2022-12-07T14:11:53;100383.88;;;5.06
65272;BMP280;51868;48.812;8.198;2022-12-07T14:14:23;100377.94;;;5.10
65272;BMP280;51868;48.812;8.198;2022-12-07T14:17:01;100376.63;;;5.11
65272;BMP280;51868;48.812;8.198;2022-12-07T14:19:48;100375.91;;;5.10
65272;BMP280;51868;48.812;8.198;2022-12-07T14:22:29;100381.41;;;5.10
65272;BMP280;51868;48.812;8.198;2022-12-07T14:25:19;100381.41;;;5.10
65272;BMP280;51868;48.812;8.198;2022-12-07T14:27:50;100380.84;;;5.12
65272;BMP280;51868;48.812;8.198;2022-12-07T14:30:24;100385.91;;;5.15
65272;BMP280;51868;48.812;8.198;2022-12-07T14:32:54;100389.94;;;5.14
65272;BMP280;51868;48.812;8.198;2022-12-07T14:35:22;100388.06;;;5.17
65272;BMP280;51868;48.812;8.198;2022-12-07T14:37:52;100395.03;;;5.18
65272;BMP280;51868;48.812;8.198;2022-12-07T14:40:21;100388.22;;;5.19
65272;BMP280;51868;48.812;8.198;2022-12-07T14:42:51;100387.66;;;5.21
65272;BMP280;51868;48.812;8.198;2022-12-07T14:45:22;100388.06;;;5.17
65272;BMP280;51868;48.812;8.198;2022-12-07T14:47:50;100387.34;;;5.16
65272;BMP280;51868;48.812;8.198;2022-12-07T14:50:40;100389.53;;;5.18
65272;BMP280;51868;48.812;8.198;2022-12-07T14:53:33;100395.19;;;5.20
65272;BMP280;51868;48.812;8.198;2022-12-07T14:56:02;100391.72;;;5.20
65272;BMP280;51868;48.812;8.198;2022-12-07T14:58:31;100398.66;;;5.21